Flight Track Log - Related Links

Times and Time Zones

All times are in EDT time to prevent confusion due to time zone crossing. See the GJS3710 flight status page for this flight to view local times or setup timezone preferences in your user account.

Time Position Orientation Groundspeed Altitude Reporting Facility
EDT Latitude Longitude Course Direction KTS MPH feet Rate Location/Type
Mon 09:18:52 PM 41.9333 -87.8500 86° East 222 255 3,900  Level Chicago TRACON
Mon 09:19:30 PM 41.9381 -87.7961 83° East 257 296 4,700 600 Climbing Chicago Center
Mon 09:20:32 PM 41.9528 -87.6886 80° East 282 325 4,900 1,065 Climbing Chicago Center
Mon 09:21:00 PM 42.1599 -87.3705 66° East  Level FlightAware Approximate
Mon 09:21:34 PM 41.9919 -87.5908 62° Northeast 301 346 6,900  Level Chicago Center
Mon 09:22:00 PM 42.2057 -87.2328 66° East  Level FlightAware Approximate
Mon 09:22:36 PM 42.0369 -87.4969 57° Northeast 301 346 9,500  Level Chicago Center
Mon 09:23:00 PM 42.2516 -87.0951 66° East  Level FlightAware Approximate
Mon 09:23:38 PM 42.0925 -87.4017 52° Northeast 322 371 11,700  Level Chicago Center
Mon 09:24:00 PM 42.2690 -86.9523 86° East  Level FlightAware Approximate
Mon 09:24:41 PM 42.1625 -87.2733 54° Northeast 353 406 13,700  Level Chicago Center
Mon 09:25:43 PM 42.2275 -87.1553 53° Northeast 386 444 15,400 1,887 Climbing Chicago Center
Mon 09:26:45 PM 42.2800 -87.0219 62° Northeast 407 468 17,600 2,081 Climbing Chicago Center
Mon 09:27:47 PM 42.2864 -86.8667 87° East 413 475 19,700 1,854 Climbing Chicago Center
Mon 09:28:48 PM 42.2931 -86.7114 87° East 416 479 21,400 1,561 Climbing Chicago Center
Mon 09:29:50 PM 42.2989 -86.5364 87° East 431 496 22,900 1,306 Climbing Chicago Center
Mon 09:30:52 PM 42.3056 -86.3775 87° East 446 513 24,100 1,355 Climbing Chicago Center
Mon 09:31:54 PM 42.3114 -86.1731 88° East 456 525 25,700 1,500 Climbing Chicago Center
Mon 09:32:56 PM 42.3147 -86.0006 88° East 462 532 27,200 1,210 Climbing Chicago Center
Mon 09:33:58 PM 42.3119 -85.8286 91° East 463 533 28,200 968 Climbing Chicago Center
Mon 09:35:00 PM 42.3086 -85.6547 91° East 467 537 29,200 968 Climbing Chicago Center
Mon 09:36:02 PM 42.3072 -85.4758 91° East 475 547 30,200 968 Climbing Chicago Center
Mon 09:37:04 PM 42.3039 -85.2614 91° East 479 551 31,200 927 Climbing Chicago Center
Mon 09:38:05 PM 42.3006 -85.0825 91° East 479 551 32,100 976 Climbing Chicago Center
Mon 09:39:07 PM 42.2978 -84.9039 91° East 478 550 33,200 1,065 Climbing Chicago Center
Mon 09:40:09 PM 42.2928 -84.7319 92° East 470 541 34,300 871 Climbing Chicago Center
Mon 09:41:11 PM 42.2883 -84.5644 92° East 457 526 35,000 341 Climbing Chicago Center
Mon 09:42:12 PM 42.2981 -84.3969 85° East 455 524 35,000  Level Chicago Center
Mon 09:42:32 PM 42.3056 -84.3203 82° East 442 509 35,000  Level Cleveland Center
Mon 09:43:32 PM 42.3297 -84.1531 79° East 442 509 35,000  Level Cleveland Center
Mon 09:44:32 PM 42.3533 -83.9886 79° East 447 514 35,000  Level Cleveland Center
Mon 09:45:32 PM 42.3769 -83.8214 79° East 447 514 35,000  Level Cleveland Center
Mon 09:47:32 PM 42.4108 -83.4911 82° East 447 514 35,000  Level Cleveland Center
Mon 09:48:32 PM 42.4144 -83.3450 88° East 435 501 35,000  Level Cleveland Center
Mon 09:49:32 PM 42.4225 -83.1767 86° East 435 501 35,000  Level Cleveland Center
Mon 09:50:32 PM 42.4261 -83.0164 88° East 435 501 35,000  Level Cleveland Center
Mon 09:51:32 PM 42.4314 -82.8533 87° East 435 501 35,000  Level Cleveland Center
Mon 09:52:32 PM 42.4367 -82.6875 87° East 435 501 35,000  Level Cleveland Center
Mon 09:53:32 PM 42.4417 -82.5275 88° East 435 501 35,000  Level Cleveland Center
Mon 09:54:32 PM 42.4464 -82.3614 88° East 435 501 35,000  Level Cleveland Center
Mon 09:55:32 PM 42.4508 -82.1956 88° East 435 501 35,000  Level Cleveland Center
Mon 09:56:32 PM 42.4575 -82.0183 87° East 435 501 35,000  Level Cleveland Center
Mon 09:57:32 PM 42.4592 -81.8694 89° East 442 509 35,000  Level Cleveland Center
Mon 09:58:32 PM 42.4653 -81.6892 87° East 437 503 35,000  Level Cleveland Center
Mon 09:59:32 PM 42.4667 -81.5233 89° East 437 503 35,000  Level Cleveland Center
Mon 10:00:32 PM 42.4722 -81.3600 87° East 437 503 35,000  Level Cleveland Center
Mon 10:01:32 PM 42.4731 -81.1967 90° East 437 503 35,000  Level Cleveland Center
Mon 10:02:32 PM 42.4781 -81.0506 87° East 437 503 35,000  Level Cleveland Center
Mon 10:03:32 PM 42.4786 -80.8872 90° East 437 503 35,000  Level Cleveland Center
Mon 10:04:32 PM 42.4831 -80.7239 88° East 437 503 35,000  Level Cleveland Center
Mon 10:05:32 PM 42.4831 -80.5606 90° East 437 503 35,000  Level Cleveland Center
Mon 10:06:32 PM 42.4850 -80.3972 89° East 437 503 35,000  Level Cleveland Center
Mon 10:07:32 PM 42.4867 -80.2172 89° East 437 503 35,000  Level Cleveland Center
Mon 10:08:32 PM 42.4881 -80.0483 89° East 443 510 35,000  Level Cleveland Center
Mon 10:09:32 PM 42.4914 -79.8819 88° East 436 502 35,000  Level Cleveland Center
Mon 10:10:32 PM 42.4925 -79.7131 89° East 436 502 35,000  Level Cleveland Center
Mon 10:11:32 PM 42.4931 -79.5469 90° East 436 502 35,000  Level Cleveland Center
Mon 10:12:32 PM 42.4936 -79.3808 90° East 436 502 35,000  Level Cleveland Center
Mon 10:13:32 PM 42.4958 -79.2119 89° East 441 507 35,000  Level Cleveland Center
Mon 10:14:32 PM 42.5083 -79.0425 84° East 441 507 35,000  Level Cleveland Center
Mon 10:15:32 PM 42.5206 -78.8733 84° East 441 507 35,000  Level Cleveland Center
Mon 10:16:32 PM 42.5306 -78.7067 85° East 441 507 35,000  Level Cleveland Center
Mon 10:17:32 PM 42.5422 -78.5372 85° East 446 513 35,000  Level Cleveland Center
Mon 10:18:32 PM 42.5517 -78.3706 86° East 446 513 35,000  Level Cleveland Center
Mon 10:19:32 PM 42.5628 -78.2011 85° East 446 513 35,000  Level Cleveland Center
Mon 10:20:32 PM 42.5739 -78.0314 85° East 446 513 35,000 -450 Level Cleveland Center
Mon 10:21:32 PM 42.5825 -77.8647 86° East 446 513 34,100 -950 Descending Cleveland Center
Mon 10:22:32 PM 42.5892 -77.7122 87° East 446 513 33,100 -1,017 Descending Cleveland Center
Mon 10:24:29 PM 42.6103 -77.3694 85° East 456 525 31,100 -978 Descending Boston Center
Mon 10:25:30 PM 42.6197 -77.1981 86° East 456 525 30,200 -950 Descending Boston Center
Mon 10:26:29 PM 42.6289 -77.0236 86° East 461 531 29,200 -605 Descending Boston Center
Mon 10:27:29 PM 42.6381 -76.8464 86° East 461 531 29,000 -100 Descending Boston Center
Mon 10:28:29 PM 42.6444 -76.6775 87° East 456 525 29,000  Level Boston Center
Mon 10:29:29 PM 42.6547 -76.5086 85° East 456 525 29,000 -200 Level Boston Center
Mon 10:30:29 PM 42.6606 -76.3425 87° East 451 519 28,600 -1,150 Descending Boston Center
Mon 10:31:29 PM 42.6708 -76.1650 85° East 451 519 26,700 -1,850 Descending Boston Center
Mon 10:32:29 PM 42.6764 -75.9875 88° East 463 533 24,900 -1,800 Descending Boston Center
Mon 10:33:29 PM 42.6839 -75.8156 87° East 463 533 23,100 -1,750 Descending Boston Center
Mon 10:34:29 PM 42.6739 -75.6569 95° East 441 507 21,400 -1,785 Descending Boston Center
Mon 10:35:30 PM 42.5914 -75.5453 135° Southeast 393 452 19,500 -1,800 Descending Boston Center
Mon 10:36:29 PM 42.5594 -75.4111 108° East 374 430 17,800 -1,765 Descending Boston Center
Mon 10:37:29 PM 42.5775 -75.2794 79° East 368 423 16,000 -1,854 Descending Boston Center
Mon 10:38:32 PM 42.5981 -75.1197 80° East 379 436 14,000 -1,920 Descending Boston Center
Mon 10:39:09 PM 42.6086 -75.0297 81° East 383 441 12,800 -1,739 Descending Boston Center
Mon 10:39:41 PM 42.6161 -74.9736 80° East 368 423 12,000 -1,500 Descending Boston Center
Mon 10:39:57 PM 42.6192 -74.9258 85° East 371 427 11,600 -1,000 Descending Boston Center
Mon 10:40:41 PM 42.6314 -74.8389 79° East 368 423 11,000 -590 Descending Boston Center
Mon 10:40:58 PM 42.6367 -74.7911 81° East 353 406 11,000  Level Boston Center
Mon 10:41:42 PM 42.6467 -74.7097 80° East 356 410 11,000  Level Boston Center
Mon 10:42:11 PM 42.6397 -74.6389 98° East 329 379 11,000  Level Boston Center
Mon 10:42:42 PM 42.6344 -74.5764 97° East 331 381 11,000 -100 Level Boston Center
Mon 10:43:11 PM 42.6294 -74.5200 97° East 320 368 10,900  Descending Boston Center
Mon 10:43:41 PM 42.6242 -74.4661 98° East 325 374 11,000 -393 Climbing Boston Center
Mon 10:44:12 PM 42.6169 -74.4011 99° East 322 371 10,500 -1,400 Descending Boston Center
Mon 10:44:41 PM 42.6117 -74.3358 96° East 325 374 9,600 -1,770 Descending Boston Center
Mon 10:45:13 PM 42.6044 -74.2764 99° East 303 349 8,700 -1,700 Descending Boston Center
Mon 10:45:41 PM 42.6008 -74.2369 97° East 302 348 7,900 -1,909 Descending Boston Center
Mon 10:46:19 PM 42.5936 -74.1606 97° East 286 329 6,600 -1,900 Descending Boston Center
Mon 10:46:41 PM 42.5903 -74.1181 96° East 295 339 6,000 -1,672 Descending Boston Center
Mon 10:47:20 PM 42.5828 -74.0558 99° East 278 320 4,900 -1,600 Descending Boston Center
Mon 10:47:41 PM 42.5789 -74.0275 101° East 289 333 4,400 -896 Descending Boston Center
Mon 10:48:27 PM 42.5717 -73.9456 97° East 250 288 3,900 -1,019 Descending Boston Center
Mon 10:49:27 PM 42.5708 -73.8581 91° East 233 268 2,600 -991 Descending Boston Center
Mon 10:50:22 PM 42.6150 -73.8169 34° Northeast 216 249 2,000 -486 Descending Boston Center
Mon 10:50:41 PM 42.6278 -73.8086 26° Northeast 208 239 2,000  Level Boston Center

Login

Don't have an account? Register now (free) for customized features, flight alerts, and more!